sensor_id;sensor_type;location;lat;lon;timestamp;P1;durP1;ratioP1;P2;durP2;ratioP2
21168;SDS011;10742;51.816;8.662;2023-06-14T00:01:06;5.57;;;2.70;;
21168;SDS011;10742;51.816;8.662;2023-06-14T00:04:09;8.60;;;2.77;;
21168;SDS011;10742;51.816;8.662;2023-06-14T00:07:11;6.53;;;2.77;;
21168;SDS011;10742;51.816;8.662;2023-06-14T00:10:15;5.53;;;2.70;;
21168;SDS011;10742;51.816;8.662;2023-06-14T00:13:18;9.87;;;2.73;;
21168;SDS011;10742;51.816;8.662;2023-06-14T00:16:21;5.00;;;2.70;;
21168;SDS011;10742;51.816;8.662;2023-06-14T00:19:24;5.70;;;2.70;;
21168;SDS011;10742;51.816;8.662;2023-06-14T00:22:28;4.90;;;2.87;;
21168;SDS011;10742;51.816;8.662;2023-06-14T00:25:30;7.13;;;2.63;;
21168;SDS011;10742;51.816;8.662;2023-06-14T00:28:33;4.77;;;2.90;;
21168;SDS011;10742;51.816;8.662;2023-06-14T00:31:35;7.97;;;3.03;;
21168;SDS011;10742;51.816;8.662;2023-06-14T00:34:38;10.33;;;3.00;;
21168;SDS011;10742;51.816;8.662;2023-06-14T00:37:42;9.47;;;3.10;;
21168;SDS011;10742;51.816;8.662;2023-06-14T00:40:45;11.33;;;2.93;;
21168;SDS011;10742;51.816;8.662;2023-06-14T00:43:48;5.83;;;2.63;;
21168;SDS011;10742;51.816;8.662;2023-06-14T00:46:50;12.83;;;3.00;;
21168;SDS011;10742;51.816;8.662;2023-06-14T00:49:53;4.27;;;2.73;;
21168;SDS011;10742;51.816;8.662;2023-06-14T00:52:57;10.93;;;2.80;;
21168;SDS011;10742;51.816;8.662;2023-06-14T00:56:01;5.57;;;3.00;;
21168;SDS011;10742;51.816;8.662;2023-06-14T00:59:04;7.10;;;3.10;;
21168;SDS011;10742;51.816;8.662;2023-06-14T01:02:08;6.70;;;3.10;;
21168;SDS011;10742;51.816;8.662;2023-06-14T01:05:11;8.87;;;3.10;;
21168;SDS011;10742;51.816;8.662;2023-06-14T01:11:32;6.33;;;2.87;;
21168;SDS011;10742;51.816;8.662;2023-06-14T01:14:40;5.57;;;2.80;;
21168;SDS011;10742;51.816;8.662;2023-06-14T01:17:44;10.70;;;3.30;;
21168;SDS011;10742;51.816;8.662;2023-06-14T01:20:48;5.83;;;3.00;;
21168;SDS011;10742;51.816;8.662;2023-06-14T01:23:52;5.50;;;3.40;;
21168;SDS011;10742;51.816;8.662;2023-06-14T01:26:55;12.43;;;3.33;;
21168;SDS011;10742;51.816;8.662;2023-06-14T01:29:58;7.57;;;3.33;;
21168;SDS011;10742;51.816;8.662;2023-06-14T01:33:02;7.17;;;3.17;;
21168;SDS011;10742;51.816;8.662;2023-06-14T01:36:06;5.73;;;3.03;;
21168;SDS011;10742;51.816;8.662;2023-06-14T01:39:14;9.23;;;3.07;;
21168;SDS011;10742;51.816;8.662;2023-06-14T01:42:19;6.57;;;3.13;;
21168;SDS011;10742;51.816;8.662;2023-06-14T01:45:22;6.87;;;2.87;;
21168;SDS011;10742;51.816;8.662;2023-06-14T01:48:25;4.90;;;3.20;;
21168;SDS011;10742;51.816;8.662;2023-06-14T01:51:28;9.17;;;2.80;;
21168;SDS011;10742;51.816;8.662;2023-06-14T01:54:31;7.27;;;3.13;;
21168;SDS011;10742;51.816;8.662;2023-06-14T01:57:33;5.93;;;3.00;;
21168;SDS011;10742;51.816;8.662;2023-06-14T02:00:36;5.73;;;3.00;;
21168;SDS011;10742;51.816;8.662;2023-06-14T02:03:38;8.13;;;3.20;;
21168;SDS011;10742;51.816;8.662;2023-06-14T02:06:41;8.83;;;3.27;;
21168;SDS011;10742;51.816;8.662;2023-06-14T02:09:44;7.17;;;3.07;;
21168;SDS011;10742;51.816;8.662;2023-06-14T02:12:46;4.33;;;2.90;;
21168;SDS011;10742;51.816;8.662;2023-06-14T02:15:49;6.07;;;3.20;;
21168;SDS011;10742;51.816;8.662;2023-06-14T02:18:56;7.63;;;2.80;;
21168;SDS011;10742;51.816;8.662;2023-06-14T02:21:58;7.93;;;3.37;;
21168;SDS011;10742;51.816;8.662;2023-06-14T02:25:01;6.23;;;3.00;;
21168;SDS011;10742;51.816;8.662;2023-06-14T02:28:04;7.13;;;3.10;;
21168;SDS011;10742;51.816;8.662;2023-06-14T02:31:07;5.83;;;2.93;;
21168;SDS011;10742;51.816;8.662;2023-06-14T02:34:09;6.90;;;3.10;;
21168;SDS011;10742;51.816;8.662;2023-06-14T02:37:12;9.17;;;2.60;;
21168;SDS011;10742;51.816;8.662;2023-06-14T02:40:15;8.53;;;3.10;;
21168;SDS011;10742;51.816;8.662;2023-06-14T02:43:17;5.17;;;2.77;;
21168;SDS011;10742;51.816;8.662;2023-06-14T02:46:20;8.73;;;3.00;;
21168;SDS011;10742;51.816;8.662;2023-06-14T02:49:24;5.73;;;2.83;;
21168;SDS011;10742;51.816;8.662;2023-06-14T02:52:26;7.60;;;3.40;;
21168;SDS011;10742;51.816;8.662;2023-06-14T02:55:29;5.77;;;2.90;;
21168;SDS011;10742;51.816;8.662;2023-06-14T02:58:32;4.03;;;2.63;;
21168;SDS011;10742;51.816;8.662;2023-06-14T03:01:35;6.93;;;2.67;;
21168;SDS011;10742;51.816;8.662;2023-06-14T03:04:46;5.73;;;2.60;;
21168;SDS011;10742;51.816;8.662;2023-06-14T03:07:51;6.20;;;3.07;;
21168;SDS011;10742;51.816;8.662;2023-06-14T03:10:56;5.70;;;2.97;;
21168;SDS011;10742;51.816;8.662;2023-06-14T03:14:00;6.37;;;2.97;;
21168;SDS011;10742;51.816;8.662;2023-06-14T03:17:02;5.07;;;2.90;;
21168;SDS011;10742;51.816;8.662;2023-06-14T03:20:08;6.50;;;3.20;;
21168;SDS011;10742;51.816;8.662;2023-06-14T03:23:11;8.93;;;2.97;;
21168;SDS011;10742;51.816;8.662;2023-06-14T03:26:15;4.53;;;2.90;;
21168;SDS011;10742;51.816;8.662;2023-06-14T03:29:22;6.63;;;3.07;;
21168;SDS011;10742;51.816;8.662;2023-06-14T03:32:24;8.57;;;3.00;;
21168;SDS011;10742;51.816;8.662;2023-06-14T03:35:27;9.50;;;3.30;;
21168;SDS011;10742;51.816;8.662;2023-06-14T03:38:31;5.47;;;3.30;;
21168;SDS011;10742;51.816;8.662;2023-06-14T03:41:34;5.53;;;3.13;;
21168;SDS011;10742;51.816;8.662;2023-06-14T03:44:37;5.00;;;2.70;;
21168;SDS011;10742;51.816;8.662;2023-06-14T03:47:40;7.40;;;2.67;;
21168;SDS011;10742;51.816;8.662;2023-06-14T03:50:43;7.47;;;3.10;;
21168;SDS011;10742;51.816;8.662;2023-06-14T03:53:46;7.10;;;3.00;;
21168;SDS011;10742;51.816;8.662;2023-06-14T03:57:00;10.27;;;2.77;;
21168;SDS011;10742;51.816;8.662;2023-06-14T04:00:03;4.33;;;2.70;;
21168;SDS011;10742;51.816;8.662;2023-06-14T04:03:15;3.53;;;2.70;;
21168;SDS011;10742;51.816;8.662;2023-06-14T04:06:18;3.73;;;2.60;;
21168;SDS011;10742;51.816;8.662;2023-06-14T04:09:23;6.70;;;2.80;;
21168;SDS011;10742;51.816;8.662;2023-06-14T04:12:26;6.00;;;3.00;;
21168;SDS011;10742;51.816;8.662;2023-06-14T04:15:29;6.30;;;2.87;;
21168;SDS011;10742;51.816;8.662;2023-06-14T04:18:33;4.43;;;2.80;;
21168;SDS011;10742;51.816;8.662;2023-06-14T04:21:35;5.60;;;2.90;;
21168;SDS011;10742;51.816;8.662;2023-06-14T04:24:39;7.77;;;2.77;;
21168;SDS011;10742;51.816;8.662;2023-06-14T04:27:45;7.63;;;2.63;;
21168;SDS011;10742;51.816;8.662;2023-06-14T04:30:49;11.63;;;3.20;;
21168;SDS011;10742;51.816;8.662;2023-06-14T04:33:54;4.77;;;2.80;;
21168;SDS011;10742;51.816;8.662;2023-06-14T04:36:57;8.07;;;2.60;;
21168;SDS011;10742;51.816;8.662;2023-06-14T04:40:06;7.87;;;2.93;;
21168;SDS011;10742;51.816;8.662;2023-06-14T04:43:11;6.33;;;2.50;;
21168;SDS011;10742;51.816;8.662;2023-06-14T04:46:16;3.93;;;2.40;;
21168;SDS011;10742;51.816;8.662;2023-06-14T04:49:19;4.27;;;2.40;;
21168;SDS011;10742;51.816;8.662;2023-06-14T04:52:21;5.40;;;2.73;;
21168;SDS011;10742;51.816;8.662;2023-06-14T04:55:25;7.67;;;3.20;;
21168;SDS011;10742;51.816;8.662;2023-06-14T04:58:28;8.53;;;2.50;;
21168;SDS011;10742;51.816;8.662;2023-06-14T05:01:31;6.57;;;2.70;;
21168;SDS011;10742;51.816;8.662;2023-06-14T05:04:35;8.77;;;2.53;;
21168;SDS011;10742;51.816;8.662;2023-06-14T05:07:41;8.03;;;2.50;;
21168;SDS011;10742;51.816;8.662;2023-06-14T05:10:44;5.37;;;3.03;;
21168;SDS011;10742;51.816;8.662;2023-06-14T05:13:46;6.37;;;2.40;;
21168;SDS011;10742;51.816;8.662;2023-06-14T05:16:49;5.73;;;2.60;;
21168;SDS011;10742;51.816;8.662;2023-06-14T05:19:52;4.03;;;2.27;;
21168;SDS011;10742;51.816;8.662;2023-06-14T05:22:54;3.70;;;2.30;;
21168;SDS011;10742;51.816;8.662;2023-06-14T05:25:58;5.00;;;2.40;;
21168;SDS011;10742;51.816;8.662;2023-06-14T05:29:02;5.17;;;2.50;;
21168;SDS011;10742;51.816;8.662;2023-06-14T05:32:05;5.47;;;2.30;;
21168;SDS011;10742;51.816;8.662;2023-06-14T05:35:07;5.57;;;2.50;;
21168;SDS011;10742;51.816;8.662;2023-06-14T05:38:10;2.67;;;2.00;;
21168;SDS011;10742;51.816;8.662;2023-06-14T05:41:13;3.53;;;1.73;;
21168;SDS011;10742;51.816;8.662;2023-06-14T05:44:15;3.47;;;1.90;;
21168;SDS011;10742;51.816;8.662;2023-06-14T05:47:18;3.70;;;2.03;;
21168;SDS011;10742;51.816;8.662;2023-06-14T05:50:20;2.63;;;1.88;;
21168;SDS011;10742;51.816;8.662;2023-06-14T05:53:23;3.67;;;2.00;;
21168;SDS011;10742;51.816;8.662;2023-06-14T05:56:26;4.65;;;1.70;;
21168;SDS011;10742;51.816;8.662;2023-06-14T05:59:28;4.07;;;2.00;;
21168;SDS011;10742;51.816;8.662;2023-06-14T06:02:31;8.63;;;2.10;;
21168;SDS011;10742;51.816;8.662;2023-06-14T06:05:34;2.45;;;1.70;;
21168;SDS011;10742;51.816;8.662;2023-06-14T06:08:36;3.45;;;1.88;;
21168;SDS011;10742;51.816;8.662;2023-06-14T06:11:39;2.65;;;1.60;;
21168;SDS011;10742;51.816;8.662;2023-06-14T06:14:49;4.22;;;1.70;;
21168;SDS011;10742;51.816;8.662;2023-06-14T06:17:52;5.10;;;1.55;;
21168;SDS011;10742;51.816;8.662;2023-06-14T06:20:56;3.67;;;1.67;;
21168;SDS011;10742;51.816;8.662;2023-06-14T06:23:59;2.38;;;1.50;;
21168;SDS011;10742;51.816;8.662;2023-06-14T06:27:05;5.53;;;1.90;;
21168;SDS011;10742;51.816;8.662;2023-06-14T06:30:10;3.35;;;1.55;;
21168;SDS011;10742;51.816;8.662;2023-06-14T06:33:13;5.82;;;1.58;;
21168;SDS011;10742;51.816;8.662;2023-06-14T06:36:16;6.55;;;1.83;;
21168;SDS011;10742;51.816;8.662;2023-06-14T06:39:18;3.92;;;1.70;;
21168;SDS011;10742;51.816;8.662;2023-06-14T06:42:21;3.53;;;1.40;;
21168;SDS011;10742;51.816;8.662;2023-06-14T06:45:25;2.90;;;1.40;;
21168;SDS011;10742;51.816;8.662;2023-06-14T06:48:28;2.72;;;1.90;;
21168;SDS011;10742;51.816;8.662;2023-06-14T06:51:30;2.10;;;1.90;;
21168;SDS011;10742;51.816;8.662;2023-06-14T06:54:33;5.13;;;1.48;;
21168;SDS011;10742;51.816;8.662;2023-06-14T06:57:36;4.38;;;1.65;;
21168;SDS011;10742;51.816;8.662;2023-06-14T07:00:39;1.98;;;1.50;;
21168;SDS011;10742;51.816;8.662;2023-06-14T07:03:42;1.55;;;1.35;;
21168;SDS011;10742;51.816;8.662;2023-06-14T07:06:45;3.55;;;1.63;;
21168;SDS011;10742;51.816;8.662;2023-06-14T07:09:49;3.90;;;1.88;;
21168;SDS011;10742;51.816;8.662;2023-06-14T07:12:52;2.53;;;1.63;;
21168;SDS011;10742;51.816;8.662;2023-06-14T07:15:55;2.03;;;1.73;;
21168;SDS011;10742;51.816;8.662;2023-06-14T07:19:01;2.33;;;1.60;;
21168;SDS011;10742;51.816;8.662;2023-06-14T07:22:04;5.72;;;2.10;;
21168;SDS011;10742;51.816;8.662;2023-06-14T07:25:08;3.95;;;1.95;;
21168;SDS011;10742;51.816;8.662;2023-06-14T07:28:11;9.18;;;2.10;;
21168;SDS011;10742;51.816;8.662;2023-06-14T07:31:14;4.43;;;2.00;;
21168;SDS011;10742;51.816;8.662;2023-06-14T07:34:17;4.13;;;1.88;;
21168;SDS011;10742;51.816;8.662;2023-06-14T07:37:20;6.05;;;1.90;;
21168;SDS011;10742;51.816;8.662;2023-06-14T07:40:22;1.98;;;1.42;;
21168;SDS011;10742;51.816;8.662;2023-06-14T07:43:25;3.45;;;1.77;;
21168;SDS011;10742;51.816;8.662;2023-06-14T07:46:27;1.50;;;1.40;;
21168;SDS011;10742;51.816;8.662;2023-06-14T07:49:30;2.30;;;1.58;;
21168;SDS011;10742;51.816;8.662;2023-06-14T07:52:32;1.95;;;1.75;;
21168;SDS011;10742;51.816;8.662;2023-06-14T07:55:35;2.05;;;1.60;;
21168;SDS011;10742;51.816;8.662;2023-06-14T07:58:46;3.20;;;1.50;;
21168;SDS011;10742;51.816;8.662;2023-06-14T08:01:49;6.90;;;1.80;;
21168;SDS011;10742;51.816;8.662;2023-06-14T08:04:51;2.80;;;1.67;;
21168;SDS011;10742;51.816;8.662;2023-06-14T08:07:54;3.17;;;1.50;;
21168;SDS011;10742;51.816;8.662;2023-06-14T08:10:57;3.60;;;1.83;;
21168;SDS011;10742;51.816;8.662;2023-06-14T08:14:00;4.15;;;1.83;;
21168;SDS011;10742;51.816;8.662;2023-06-14T08:17:02;3.53;;;2.00;;
21168;SDS011;10742;51.816;8.662;2023-06-14T08:20:05;4.38;;;1.85;;
21168;SDS011;10742;51.816;8.662;2023-06-14T08:23:08;3.03;;;1.70;;
21168;SDS011;10742;51.816;8.662;2023-06-14T08:26:12;3.00;;;1.83;;
21168;SDS011;10742;51.816;8.662;2023-06-14T08:29:14;3.78;;;1.52;;
21168;SDS011;10742;51.816;8.662;2023-06-14T08:32:17;4.15;;;1.70;;
21168;SDS011;10742;51.816;8.662;2023-06-14T08:35:19;4.07;;;1.83;;
21168;SDS011;10742;51.816;8.662;2023-06-14T08:38:22;4.15;;;1.60;;
21168;SDS011;10742;51.816;8.662;2023-06-14T08:41:24;4.15;;;2.00;;
21168;SDS011;10742;51.816;8.662;2023-06-14T08:44:29;2.13;;;1.60;;
21168;SDS011;10742;51.816;8.662;2023-06-14T08:47:32;5.03;;;2.15;;
21168;SDS011;10742;51.816;8.662;2023-06-14T08:50:38;4.68;;;1.80;;
21168;SDS011;10742;51.816;8.662;2023-06-14T08:53:43;3.97;;;1.92;;
21168;SDS011;10742;51.816;8.662;2023-06-14T08:56:46;3.85;;;2.10;;
21168;SDS011;10742;51.816;8.662;2023-06-14T08:59:50;4.57;;;2.15;;
21168;SDS011;10742;51.816;8.662;2023-06-14T09:02:56;9.30;;;2.28;;
21168;SDS011;10742;51.816;8.662;2023-06-14T09:05:59;5.82;;;1.88;;
21168;SDS011;10742;51.816;8.662;2023-06-14T09:09:02;5.30;;;2.20;;
21168;SDS011;10742;51.816;8.662;2023-06-14T09:12:07;6.50;;;2.25;;
21168;SDS011;10742;51.816;8.662;2023-06-14T09:15:13;5.75;;;2.40;;
21168;SDS011;10742;51.816;8.662;2023-06-14T09:18:16;2.65;;;1.85;;
21168;SDS011;10742;51.816;8.662;2023-06-14T09:21:18;5.70;;;2.10;;
21168;SDS011;10742;51.816;8.662;2023-06-14T09:24:25;2.80;;;2.00;;
21168;SDS011;10742;51.816;8.662;2023-06-14T09:27:28;8.55;;;2.70;;
21168;SDS011;10742;51.816;8.662;2023-06-14T09:30:31;3.78;;;2.30;;
21168;SDS011;10742;51.816;8.662;2023-06-14T09:33:34;4.07;;;2.67;;
21168;SDS011;10742;51.816;8.662;2023-06-14T09:36:37;6.20;;;2.38;;
21168;SDS011;10742;51.816;8.662;2023-06-14T09:39:49;4.88;;;2.40;;
21168;SDS011;10742;51.816;8.662;2023-06-14T09:42:52;4.22;;;2.20;;
21168;SDS011;10742;51.816;8.662;2023-06-14T09:45:55;3.58;;;2.30;;
21168;SDS011;10742;51.816;8.662;2023-06-14T09:48:58;6.35;;;2.42;;
21168;SDS011;10742;51.816;8.662;2023-06-14T09:52:02;3.67;;;2.13;;
21168;SDS011;10742;51.816;8.662;2023-06-14T09:55:07;2.97;;;2.30;;
21168;SDS011;10742;51.816;8.662;2023-06-14T09:58:15;3.50;;;2.17;;
21168;SDS011;10742;51.816;8.662;2023-06-14T10:01:21;4.60;;;2.22;;
21168;SDS011;10742;51.816;8.662;2023-06-14T10:04:27;4.95;;;2.40;;
21168;SDS011;10742;51.816;8.662;2023-06-14T10:08:20;2.15;;;2.00;;
21168;SDS011;10742;51.816;8.662;2023-06-14T10:11:02;2.70;;;1.90;;
21168;SDS011;10742;51.816;8.662;2023-06-14T10:14:05;5.07;;;2.33;;
21168;SDS011;10742;51.816;8.662;2023-06-14T10:17:08;4.35;;;2.25;;
21168;SDS011;10742;51.816;8.662;2023-06-14T10:23:28;4.53;;;2.17;;
21168;SDS011;10742;51.816;8.662;2023-06-14T10:26:33;3.38;;;2.03;;
21168;SDS011;10742;51.816;8.662;2023-06-14T10:33:03;5.07;;;2.47;;
21168;SDS011;10742;51.816;8.662;2023-06-14T10:39:24;5.20;;;2.17;;
21168;SDS011;10742;51.816;8.662;2023-06-14T10:42:28;4.85;;;2.30;;
21168;SDS011;10742;51.816;8.662;2023-06-14T10:45:34;2.15;;;1.90;;
21168;SDS011;10742;51.816;8.662;2023-06-14T10:48:44;3.58;;;2.13;;
21168;SDS011;10742;51.816;8.662;2023-06-14T10:51:50;6.97;;;2.30;;
21168;SDS011;10742;51.816;8.662;2023-06-14T10:55:06;4.18;;;2.30;;
21168;SDS011;10742;51.816;8.662;2023-06-14T10:58:17;3.85;;;2.15;;
21168;SDS011;10742;51.816;8.662;2023-06-14T11:01:22;5.57;;;2.45;;
21168;SDS011;10742;51.816;8.662;2023-06-14T11:04:52;2.75;;;1.90;;
21168;SDS011;10742;51.816;8.662;2023-06-14T11:11:05;2.85;;;2.30;;
21168;SDS011;10742;51.816;8.662;2023-06-14T11:14:09;5.60;;;2.08;;
21168;SDS011;10742;51.816;8.662;2023-06-14T11:17:12;3.75;;;2.20;;
21168;SDS011;10742;51.816;8.662;2023-06-14T11:20:15;4.18;;;2.30;;
21168;SDS011;10742;51.816;8.662;2023-06-14T11:23:21;2.40;;;2.20;;
21168;SDS011;10742;51.816;8.662;2023-06-14T11:26:28;4.15;;;2.28;;
21168;SDS011;10742;51.816;8.662;2023-06-14T11:29:32;5.05;;;2.17;;
21168;SDS011;10742;51.816;8.662;2023-06-14T11:32:34;3.28;;;2.40;;
21168;SDS011;10742;51.816;8.662;2023-06-14T11:35:41;2.75;;;2.30;;
21168;SDS011;10742;51.816;8.662;2023-06-14T11:38:44;2.30;;;2.10;;
21168;SDS011;10742;51.816;8.662;2023-06-14T11:41:46;3.40;;;2.40;;
21168;SDS011;10742;51.816;8.662;2023-06-14T11:44:49;3.83;;;2.33;;
21168;SDS011;10742;51.816;8.662;2023-06-14T11:47:53;2.78;;;2.20;;
21168;SDS011;10742;51.816;8.662;2023-06-14T11:50:58;4.00;;;2.20;;
21168;SDS011;10742;51.816;8.662;2023-06-14T11:54:01;4.47;;;2.20;;
21168;SDS011;10742;51.816;8.662;2023-06-14T11:57:05;3.38;;;2.30;;
21168;SDS011;10742;51.816;8.662;2023-06-14T12:00:12;4.82;;;2.25;;
21168;SDS011;10742;51.816;8.662;2023-06-14T12:03:17;4.07;;;2.30;;
21168;SDS011;10742;51.816;8.662;2023-06-14T12:06:27;2.47;;;1.95;;
21168;SDS011;10742;51.816;8.662;2023-06-14T12:09:34;2.67;;;2.13;;
21168;SDS011;10742;51.816;8.662;2023-06-14T12:12:37;2.40;;;2.03;;
21168;SDS011;10742;51.816;8.662;2023-06-14T12:15:41;2.53;;;2.10;;
21168;SDS011;10742;51.816;8.662;2023-06-14T12:18:44;5.85;;;2.15;;
21168;SDS011;10742;51.816;8.662;2023-06-14T12:21:47;5.03;;;2.00;;
21168;SDS011;10742;51.816;8.662;2023-06-14T12:24:54;2.50;;;2.15;;
21168;SDS011;10742;51.816;8.662;2023-06-14T12:28:04;3.75;;;2.30;;
21168;SDS011;10742;51.816;8.662;2023-06-14T12:31:08;6.15;;;2.40;;
21168;SDS011;10742;51.816;8.662;2023-06-14T12:34:11;6.65;;;2.08;;
21168;SDS011;10742;51.816;8.662;2023-06-14T12:37:13;4.22;;;2.13;;
21168;SDS011;10742;51.816;8.662;2023-06-14T12:40:16;6.28;;;2.05;;
21168;SDS011;10742;51.816;8.662;2023-06-14T12:43:22;2.85;;;2.40;;
21168;SDS011;10742;51.816;8.662;2023-06-14T12:46:25;3.63;;;2.22;;
21168;SDS011;10742;51.816;8.662;2023-06-14T12:49:27;5.40;;;2.20;;
21168;SDS011;10742;51.816;8.662;2023-06-14T12:52:30;5.32;;;2.15;;
21168;SDS011;10742;51.816;8.662;2023-06-14T12:55:33;4.63;;;2.60;;
21168;SDS011;10742;51.816;8.662;2023-06-14T12:58:35;2.88;;;2.25;;
21168;SDS011;10742;51.816;8.662;2023-06-14T13:01:38;2.22;;;2.03;;
21168;SDS011;10742;51.816;8.662;2023-06-14T13:04:42;3.28;;;2.03;;
21168;SDS011;10742;51.816;8.662;2023-06-14T13:07:45;3.05;;;2.10;;
21168;SDS011;10742;51.816;8.662;2023-06-14T13:10:47;4.30;;;2.33;;
21168;SDS011;10742;51.816;8.662;2023-06-14T13:13:51;5.18;;;2.60;;
21168;SDS011;10742;51.816;8.662;2023-06-14T13:16:54;5.82;;;2.15;;
21168;SDS011;10742;51.816;8.662;2023-06-14T13:19:57;6.25;;;2.28;;
21168;SDS011;10742;51.816;8.662;2023-06-14T13:23:00;3.10;;;2.10;;
21168;SDS011;10742;51.816;8.662;2023-06-14T13:26:04;2.92;;;2.25;;
21168;SDS011;10742;51.816;8.662;2023-06-14T13:29:07;3.22;;;2.33;;
21168;SDS011;10742;51.816;8.662;2023-06-14T13:32:09;2.33;;;2.00;;
21168;SDS011;10742;51.816;8.662;2023-06-14T13:35:12;3.90;;;2.22;;
21168;SDS011;10742;51.816;8.662;2023-06-14T13:38:14;4.68;;;2.00;;
21168;SDS011;10742;51.816;8.662;2023-06-14T13:41:17;3.17;;;1.92;;
21168;SDS011;10742;51.816;8.662;2023-06-14T13:44:19;3.53;;;1.88;;
21168;SDS011;10742;51.816;8.662;2023-06-14T13:47:23;4.45;;;2.10;;
21168;SDS011;10742;51.816;8.662;2023-06-14T13:50:25;2.95;;;2.00;;
21168;SDS011;10742;51.816;8.662;2023-06-14T13:53:28;4.40;;;1.92;;
21168;SDS011;10742;51.816;8.662;2023-06-14T13:56:30;1.95;;;1.70;;
21168;SDS011;10742;51.816;8.662;2023-06-14T13:59:33;3.88;;;1.88;;
21168;SDS011;10742;51.816;8.662;2023-06-14T14:02:35;2.45;;;2.00;;
21168;SDS011;10742;51.816;8.662;2023-06-14T14:05:38;2.35;;;1.88;;
21168;SDS011;10742;51.816;8.662;2023-06-14T14:08:41;2.63;;;1.70;;
21168;SDS011;10742;51.816;8.662;2023-06-14T14:11:44;5.35;;;1.80;;
21168;SDS011;10742;51.816;8.662;2023-06-14T14:14:47;2.25;;;1.80;;
21168;SDS011;10742;51.816;8.662;2023-06-14T14:17:49;3.75;;;2.03;;
21168;SDS011;10742;51.816;8.662;2023-06-14T14:20:52;2.03;;;1.80;;
21168;SDS011;10742;51.816;8.662;2023-06-14T14:23:55;3.15;;;2.10;;
21168;SDS011;10742;51.816;8.662;2023-06-14T14:26:58;6.65;;;1.98;;
21168;SDS011;10742;51.816;8.662;2023-06-14T14:30:03;4.45;;;2.38;;
21168;SDS011;10742;51.816;8.662;2023-06-14T14:33:05;4.40;;;2.00;;
21168;SDS011;10742;51.816;8.662;2023-06-14T14:36:08;4.90;;;2.10;;
21168;SDS011;10742;51.816;8.662;2023-06-14T14:39:11;2.78;;;1.85;;
21168;SDS011;10742;51.816;8.662;2023-06-14T14:42:13;8.82;;;2.17;;
21168;SDS011;10742;51.816;8.662;2023-06-14T14:45:16;3.35;;;1.92;;
21168;SDS011;10742;51.816;8.662;2023-06-14T14:48:19;3.65;;;1.80;;
21168;SDS011;10742;51.816;8.662;2023-06-14T14:51:22;2.08;;;1.65;;
21168;SDS011;10742;51.816;8.662;2023-06-14T14:54:24;5.65;;;1.90;;
21168;SDS011;10742;51.816;8.662;2023-06-14T14:57:27;3.55;;;2.08;;
21168;SDS011;10742;51.816;8.662;2023-06-14T15:00:31;2.65;;;1.80;;
21168;SDS011;10742;51.816;8.662;2023-06-14T15:03:34;4.38;;;2.15;;
21168;SDS011;10742;51.816;8.662;2023-06-14T15:06:41;2.95;;;1.98;;
21168;SDS011;10742;51.816;8.662;2023-06-14T15:09:43;4.13;;;2.00;;
21168;SDS011;10742;51.816;8.662;2023-06-14T15:12:46;3.22;;;2.20;;
21168;SDS011;10742;51.816;8.662;2023-06-14T15:15:48;3.28;;;2.42;;
21168;SDS011;10742;51.816;8.662;2023-06-14T15:18:51;5.90;;;2.30;;
21168;SDS011;10742;51.816;8.662;2023-06-14T15:21:54;4.07;;;1.98;;
21168;SDS011;10742;51.816;8.662;2023-06-14T15:24:56;9.88;;;2.67;;
21168;SDS011;10742;51.816;8.662;2023-06-14T15:27:59;4.60;;;2.33;;
21168;SDS011;10742;51.816;8.662;2023-06-14T15:31:03;5.22;;;1.90;;
21168;SDS011;10742;51.816;8.662;2023-06-14T15:34:06;3.85;;;2.05;;
21168;SDS011;10742;51.816;8.662;2023-06-14T15:37:09;3.42;;;2.13;;
21168;SDS011;10742;51.816;8.662;2023-06-14T15:40:11;2.38;;;2.17;;
21168;SDS011;10742;51.816;8.662;2023-06-14T15:43:14;2.30;;;2.10;;
21168;SDS011;10742;51.816;8.662;2023-06-14T15:46:17;4.32;;;2.03;;
21168;SDS011;10742;51.816;8.662;2023-06-14T15:49:22;4.57;;;2.50;;
21168;SDS011;10742;51.816;8.662;2023-06-14T15:52:25;5.43;;;2.58;;
21168;SDS011;10742;51.816;8.662;2023-06-14T15:55:27;4.95;;;2.42;;
21168;SDS011;10742;51.816;8.662;2023-06-14T15:58:30;5.38;;;2.10;;
21168;SDS011;10742;51.816;8.662;2023-06-14T16:01:33;4.70;;;2.47;;
21168;SDS011;10742;51.816;8.662;2023-06-14T16:04:35;4.78;;;2.50;;
21168;SDS011;10742;51.816;8.662;2023-06-14T16:07:38;5.82;;;2.55;;
21168;SDS011;10742;51.816;8.662;2023-06-14T16:10:40;5.05;;;2.53;;
21168;SDS011;10742;51.816;8.662;2023-06-14T16:13:43;5.03;;;2.80;;
21168;SDS011;10742;51.816;8.662;2023-06-14T16:16:47;4.57;;;2.47;;
21168;SDS011;10742;51.816;8.662;2023-06-14T16:19:51;4.28;;;2.72;;
21168;SDS011;10742;51.816;8.662;2023-06-14T16:22:54;6.95;;;2.55;;
21168;SDS011;10742;51.816;8.662;2023-06-14T16:25:57;9.18;;;2.65;;
21168;SDS011;10742;51.816;8.662;2023-06-14T16:28:59;7.57;;;2.92;;
21168;SDS011;10742;51.816;8.662;2023-06-14T16:32:02;6.38;;;2.70;;
21168;SDS011;10742;51.816;8.662;2023-06-14T16:35:05;6.55;;;2.70;;
21168;SDS011;10742;51.816;8.662;2023-06-14T16:38:08;6.97;;;3.00;;
21168;SDS011;10742;51.816;8.662;2023-06-14T16:41:12;3.28;;;2.58;;
21168;SDS011;10742;51.816;8.662;2023-06-14T16:44:15;4.45;;;2.63;;
21168;SDS011;10742;51.816;8.662;2023-06-14T16:47:17;3.92;;;2.70;;
21168;SDS011;10742;51.816;8.662;2023-06-14T16:50:20;8.10;;;2.50;;
21168;SDS011;10742;51.816;8.662;2023-06-14T16:53:22;6.25;;;2.70;;
21168;SDS011;10742;51.816;8.662;2023-06-14T16:56:25;6.00;;;2.70;;
21168;SDS011;10742;51.816;8.662;2023-06-14T16:59:28;6.05;;;2.40;;
21168;SDS011;10742;51.816;8.662;2023-06-14T17:02:31;6.43;;;2.78;;
21168;SDS011;10742;51.816;8.662;2023-06-14T17:05:34;2.58;;;2.38;;
21168;SDS011;10742;51.816;8.662;2023-06-14T17:08:36;5.07;;;2.88;;
21168;SDS011;10742;51.816;8.662;2023-06-14T17:11:39;5.72;;;2.47;;
21168;SDS011;10742;51.816;8.662;2023-06-14T17:14:42;5.82;;;2.60;;
21168;SDS011;10742;51.816;8.662;2023-06-14T17:17:46;7.03;;;2.72;;
21168;SDS011;10742;51.816;8.662;2023-06-14T17:20:48;5.85;;;2.83;;
21168;SDS011;10742;51.816;8.662;2023-06-14T17:23:52;5.50;;;2.65;;
21168;SDS011;10742;51.816;8.662;2023-06-14T17:26:55;3.25;;;2.50;;
21168;SDS011;10742;51.816;8.662;2023-06-14T17:29:58;3.40;;;2.50;;
21168;SDS011;10742;51.816;8.662;2023-06-14T17:33:02;5.65;;;2.80;;
21168;SDS011;10742;51.816;8.662;2023-06-14T17:36:09;7.43;;;2.75;;
21168;SDS011;10742;51.816;8.662;2023-06-14T17:39:14;4.90;;;2.80;;
21168;SDS011;10742;51.816;8.662;2023-06-14T17:42:16;9.25;;;3.00;;
21168;SDS011;10742;51.816;8.662;2023-06-14T17:45:19;8.50;;;2.90;;
21168;SDS011;10742;51.816;8.662;2023-06-14T17:48:21;3.88;;;2.65;;
21168;SDS011;10742;51.816;8.662;2023-06-14T17:51:24;5.88;;;2.80;;
21168;SDS011;10742;51.816;8.662;2023-06-14T17:54:26;5.93;;;2.80;;
21168;SDS011;10742;51.816;8.662;2023-06-14T17:57:29;11.57;;;3.00;;
21168;SDS011;10742;51.816;8.662;2023-06-14T18:00:31;5.68;;;3.00;;
21168;SDS011;10742;51.816;8.662;2023-06-14T18:03:34;10.20;;;2.67;;
21168;SDS011;10742;51.816;8.662;2023-06-14T18:06:37;7.82;;;3.20;;
21168;SDS011;10742;51.816;8.662;2023-06-14T18:09:39;5.82;;;2.88;;
21168;SDS011;10742;51.816;8.662;2023-06-14T18:12:42;7.07;;;3.05;;
21168;SDS011;10742;51.816;8.662;2023-06-14T18:15:44;6.43;;;2.90;;
21168;SDS011;10742;51.816;8.662;2023-06-14T18:18:47;6.85;;;2.75;;
21168;SDS011;10742;51.816;8.662;2023-06-14T18:21:50;3.90;;;2.50;;
21168;SDS011;10742;51.816;8.662;2023-06-14T18:24:53;6.50;;;2.80;;
21168;SDS011;10742;51.816;8.662;2023-06-14T18:27:55;6.13;;;2.92;;
21168;SDS011;10742;51.816;8.662;2023-06-14T18:30:58;7.90;;;2.95;;
21168;SDS011;10742;51.816;8.662;2023-06-14T18:34:01;8.85;;;3.40;;
21168;SDS011;10742;51.816;8.662;2023-06-14T18:37:05;7.07;;;3.10;;
21168;SDS011;10742;51.816;8.662;2023-06-14T18:40:08;14.82;;;3.25;;
21168;SDS011;10742;51.816;8.662;2023-06-14T18:43:11;9.35;;;3.03;;